sensor_id;sensor_type;location;lat;lon;timestamp;P1;P2;P0
70197;PMS5003;57582;-34.876;138.628;2023-05-10T00:01:46;0.00;0.00;0.00
70197;PMS5003;57582;-34.876;138.628;2023-05-10T00:04:46;0.00;0.00;0.00
70197;PMS5003;57582;-34.876;138.628;2023-05-10T00:07:46;0.00;0.00;0.00
70197;PMS5003;57582;-34.876;138.628;2023-05-10T00:10:46;0.00;0.00;0.00
70197;PMS5003;57582;-34.876;138.628;2023-05-10T00:13:46;0.00;0.00;0.00
70197;PMS5003;57582;-34.876;138.628;2023-05-10T00:16:46;0.87;0.67;0.13
70197;PMS5003;57582;-34.876;138.628;2023-05-10T00:19:46;3.97;1.50;0.37
70197;PMS5003;57582;-34.876;138.628;2023-05-10T00:22:46;0.00;0.00;0.00
70197;PMS5003;57582;-34.876;138.628;2023-05-10T00:25:47;0.00;0.00;0.00
70197;PMS5003;57582;-34.876;138.628;2023-05-10T00:28:46;0.13;0.13;0.00
70197;PMS5003;57582;-34.876;138.628;2023-05-10T00:31:46;0.00;0.00;0.00
70197;PMS5003;57582;-34.876;138.628;2023-05-10T00:34:46;0.00;0.00;0.00
70197;PMS5003;57582;-34.876;138.628;2023-05-10T00:37:46;0.00;0.00;0.00
70197;PMS5003;57582;-34.876;138.628;2023-05-10T00:40:46;0.73;0.27;0.13
70197;PMS5003;57582;-34.876;138.628;2023-05-10T00:43:46;0.20;0.20;0.10
70197;PMS5003;57582;-34.876;138.628;2023-05-10T00:46:46;0.17;0.17;0.00
70197;PMS5003;57582;-34.876;138.628;2023-05-10T00:49:46;0.47;0.13;0.00
70197;PMS5003;57582;-34.876;138.628;2023-05-10T00:52:46;0.17;0.17;0.00
70197;PMS5003;57582;-34.876;138.628;2023-05-10T00:55:46;0.00;0.00;0.00
70197;PMS5003;57582;-34.876;138.628;2023-05-10T00:58:46;0.30;0.30;0.00
70197;PMS5003;57582;-34.876;138.628;2023-05-10T01:01:47;0.00;0.00;0.00
70197;PMS5003;57582;-34.876;138.628;2023-05-10T01:04:46;0.00;0.00;0.00
70197;PMS5003;57582;-34.876;138.628;2023-05-10T01:07:46;0.00;0.00;0.00
70197;PMS5003;57582;-34.876;138.628;2023-05-10T01:10:46;0.53;0.53;0.00
70197;PMS5003;57582;-34.876;138.628;2023-05-10T01:13:54;0.10;0.10;0.00
70197;PMS5003;57582;-34.876;138.628;2023-05-10T01:16:48;0.00;0.00;0.00
70197;PMS5003;57582;-34.876;138.628;2023-05-10T01:19:46;0.07;0.07;0.00
70197;PMS5003;57582;-34.876;138.628;2023-05-10T01:37:59;0.37;0.37;0.00
70197;PMS5003;57582;-34.876;138.628;2023-05-10T01:41:07;3.63;2.83;1.50
70197;PMS5003;57582;-34.876;138.628;2023-05-10T01:46:50;2.27;1.30;0.53
70197;PMS5003;57582;-34.876;138.628;2023-05-10T01:49:53;1.17;1.17;0.43
70197;PMS5003;57582;-34.876;138.628;2023-05-10T01:52:51;0.73;0.23;0.17
70197;PMS5003;57582;-34.876;138.628;2023-05-10T01:55:50;0.47;0.47;0.00
70197;PMS5003;57582;-34.876;138.628;2023-05-10T01:58:47;0.77;0.77;0.17
70197;PMS5003;57582;-34.876;138.628;2023-05-10T02:01:48;0.10;0.00;0.00
70197;PMS5003;57582;-34.876;138.628;2023-05-10T02:04:47;0.60;0.60;0.30
70197;PMS5003;57582;-34.876;138.628;2023-05-10T02:07:46;0.93;0.93;0.27
70197;PMS5003;57582;-34.876;138.628;2023-05-10T02:10:47;1.00;1.00;0.43
70197;PMS5003;57582;-34.876;138.628;2023-05-10T02:13:49;0.70;0.70;0.20
70197;PMS5003;57582;-34.876;138.628;2023-05-10T02:16:46;1.10;1.00;0.23
70197;PMS5003;57582;-34.876;138.628;2023-05-10T02:19:47;1.13;1.13;0.70
70197;PMS5003;57582;-34.876;138.628;2023-05-10T02:22:48;0.27;0.27;0.00
70197;PMS5003;57582;-34.876;138.628;2023-05-10T02:25:48;0.33;0.33;0.00
70197;PMS5003;57582;-34.876;138.628;2023-05-10T02:28:47;1.70;1.17;0.53
70197;PMS5003;57582;-34.876;138.628;2023-05-10T02:31:46;0.87;0.20;0.03
70197;PMS5003;57582;-34.876;138.628;2023-05-10T02:34:47;1.20;0.53;0.10
70197;PMS5003;57582;-34.876;138.628;2023-05-10T02:37:48;0.50;0.50;0.00
70197;PMS5003;57582;-34.876;138.628;2023-05-10T02:40:46;0.90;0.90;0.67
70197;PMS5003;57582;-34.876;138.628;2023-05-10T02:43:48;0.53;0.53;0.10
70197;PMS5003;57582;-34.876;138.628;2023-05-10T02:46:47;1.67;1.67;0.87
70197;PMS5003;57582;-34.876;138.628;2023-05-10T02:49:47;1.30;1.30;0.87
70197;PMS5003;57582;-34.876;138.628;2023-05-10T02:52:47;0.17;0.17;0.00
70197;PMS5003;57582;-34.876;138.628;2023-05-10T02:55:50;0.57;0.57;0.10
70197;PMS5003;57582;-34.876;138.628;2023-05-10T02:58:46;0.03;0.03;0.00
70197;PMS5003;57582;-34.876;138.628;2023-05-10T03:01:46;0.70;0.70;0.00
70197;PMS5003;57582;-34.876;138.628;2023-05-10T03:04:46;0.57;0.57;0.03
70197;PMS5003;57582;-34.876;138.628;2023-05-10T03:07:46;0.00;0.00;0.00
70197;PMS5003;57582;-34.876;138.628;2023-05-10T03:10:55;0.73;0.73;0.00
70197;PMS5003;57582;-34.876;138.628;2023-05-10T03:16:51;0.00;0.00;0.00
70197;PMS5003;57582;-34.876;138.628;2023-05-10T03:19:55;0.03;0.03;0.00
70197;PMS5003;57582;-34.876;138.628;2023-05-10T03:22:51;0.00;0.00;0.00
70197;PMS5003;57582;-34.876;138.628;2023-05-10T03:25:48;0.00;0.00;0.00
70197;PMS5003;57582;-34.876;138.628;2023-05-10T03:28:47;0.03;0.03;0.03
70197;PMS5003;57582;-34.876;138.628;2023-05-10T03:31:46;0.23;0.00;0.00
70197;PMS5003;57582;-34.876;138.628;2023-05-10T03:34:46;0.30;0.00;0.00
70197;PMS5003;57582;-34.876;138.628;2023-05-10T03:37:46;0.30;0.30;0.00
70197;PMS5003;57582;-34.876;138.628;2023-05-10T03:40:46;1.00;1.00;0.37
70197;PMS5003;57582;-34.876;138.628;2023-05-10T03:43:46;0.30;0.30;0.13
70197;PMS5003;57582;-34.876;138.628;2023-05-10T03:46:46;0.33;0.33;0.00
70197;PMS5003;57582;-34.876;138.628;2023-05-10T03:49:46;1.13;0.33;0.03
70197;PMS5003;57582;-34.876;138.628;2023-05-10T03:52:46;0.13;0.13;0.10
70197;PMS5003;57582;-34.876;138.628;2023-05-10T03:55:46;0.87;0.87;0.00
70197;PMS5003;57582;-34.876;138.628;2023-05-10T03:58:46;0.43;0.43;0.00
70197;PMS5003;57582;-34.876;138.628;2023-05-10T04:01:47;1.73;1.03;0.83
70197;PMS5003;57582;-34.876;138.628;2023-05-10T04:04:46;1.50;1.33;0.80
70197;PMS5003;57582;-34.876;138.628;2023-05-10T04:07:46;0.67;0.10;0.00
70197;PMS5003;57582;-34.876;138.628;2023-05-10T04:10:46;3.40;2.53;1.67
70197;PMS5003;57582;-34.876;138.628;2023-05-10T04:13:47;1.07;0.90;0.37
70197;PMS5003;57582;-34.876;138.628;2023-05-10T04:16:46;1.10;1.10;1.00
70197;PMS5003;57582;-34.876;138.628;2023-05-10T04:19:46;1.47;1.47;0.73
70197;PMS5003;57582;-34.876;138.628;2023-05-10T04:22:46;1.73;1.30;0.50
70197;PMS5003;57582;-34.876;138.628;2023-05-10T04:25:47;1.50;1.20;0.00
70197;PMS5003;57582;-34.876;138.628;2023-05-10T04:28:46;1.07;1.07;0.70
70197;PMS5003;57582;-34.876;138.628;2023-05-10T04:31:46;0.53;0.53;0.37
70197;PMS5003;57582;-34.876;138.628;2023-05-10T04:34:46;1.63;0.97;0.30
70197;PMS5003;57582;-34.876;138.628;2023-05-10T04:37:46;0.60;0.60;0.57
70197;PMS5003;57582;-34.876;138.628;2023-05-10T04:40:46;1.13;0.90;0.23
70197;PMS5003;57582;-34.876;138.628;2023-05-10T04:43:46;0.97;0.87;0.30
70197;PMS5003;57582;-34.876;138.628;2023-05-10T04:46:46;2.17;1.73;0.87
70197;PMS5003;57582;-34.876;138.628;2023-05-10T04:49:47;2.07;1.07;0.50
70197;PMS5003;57582;-34.876;138.628;2023-05-10T04:52:46;0.87;0.87;0.33
70197;PMS5003;57582;-34.876;138.628;2023-05-10T04:55:46;3.47;2.10;1.33
70197;PMS5003;57582;-34.876;138.628;2023-05-10T04:58:46;2.50;1.67;0.20
70197;PMS5003;57582;-34.876;138.628;2023-05-10T05:01:46;1.20;1.20;0.80
70197;PMS5003;57582;-34.876;138.628;2023-05-10T05:04:46;2.20;1.83;1.27
70197;PMS5003;57582;-34.876;138.628;2023-05-10T05:07:46;1.23;1.23;0.27
70197;PMS5003;57582;-34.876;138.628;2023-05-10T05:10:48;3.10;3.10;1.97
70197;PMS5003;57582;-34.876;138.628;2023-05-10T05:13:47;2.00;2.00;0.57
70197;PMS5003;57582;-34.876;138.628;2023-05-10T05:16:47;1.33;1.33;0.80
70197;PMS5003;57582;-34.876;138.628;2023-05-10T05:19:46;1.97;1.97;0.63
70197;PMS5003;57582;-34.876;138.628;2023-05-10T05:22:46;1.37;1.37;0.37
70197;PMS5003;57582;-34.876;138.628;2023-05-10T05:25:47;2.83;1.93;0.83
70197;PMS5003;57582;-34.876;138.628;2023-05-10T05:28:46;1.73;1.73;1.07
70197;PMS5003;57582;-34.876;138.628;2023-05-10T05:31:46;1.57;1.53;0.67
70197;PMS5003;57582;-34.876;138.628;2023-05-10T05:34:47;3.20;2.57;1.13
70197;PMS5003;57582;-34.876;138.628;2023-05-10T05:37:47;2.17;1.73;0.77
70197;PMS5003;57582;-34.876;138.628;2023-05-10T05:40:46;2.27;2.10;1.03
70197;PMS5003;57582;-34.876;138.628;2023-05-10T05:43:46;2.17;1.80;0.87
70197;PMS5003;57582;-34.876;138.628;2023-05-10T05:46:46;3.10;2.27;1.00
70197;PMS5003;57582;-34.876;138.628;2023-05-10T05:49:47;3.23;2.27;0.53
70197;PMS5003;57582;-34.876;138.628;2023-05-10T05:52:46;1.93;1.93;1.17
70197;PMS5003;57582;-34.876;138.628;2023-05-10T05:55:51;2.60;2.60;1.23
70197;PMS5003;57582;-34.876;138.628;2023-05-10T05:58:46;2.03;1.67;1.10
70197;PMS5003;57582;-34.876;138.628;2023-05-10T06:01:47;2.97;2.50;0.87
70197;PMS5003;57582;-34.876;138.628;2023-05-10T06:04:46;2.97;2.13;1.00
70197;PMS5003;57582;-34.876;138.628;2023-05-10T06:07:46;1.77;1.30;0.63
70197;PMS5003;57582;-34.876;138.628;2023-05-10T06:10:46;3.33;1.37;0.70
70197;PMS5003;57582;-34.876;138.628;2023-05-10T06:13:47;2.57;2.27;0.80
70197;PMS5003;57582;-34.876;138.628;2023-05-10T06:16:46;3.20;2.63;1.87
70197;PMS5003;57582;-34.876;138.628;2023-05-10T06:19:46;1.60;1.10;0.30
70197;PMS5003;57582;-34.876;138.628;2023-05-10T06:22:46;1.33;1.33;0.67
70197;PMS5003;57582;-34.876;138.628;2023-05-10T06:25:47;2.53;2.33;1.43
70197;PMS5003;57582;-34.876;138.628;2023-05-10T06:28:46;2.23;2.23;1.37
70197;PMS5003;57582;-34.876;138.628;2023-05-10T06:31:46;2.83;2.83;1.77
70197;PMS5003;57582;-34.876;138.628;2023-05-10T06:34:46;2.23;1.90;0.90
70197;PMS5003;57582;-34.876;138.628;2023-05-10T06:37:47;2.57;2.57;1.13
70197;PMS5003;57582;-34.876;138.628;2023-05-10T06:40:46;1.97;1.97;1.30
70197;PMS5003;57582;-34.876;138.628;2023-05-10T06:43:46;1.97;1.97;0.90
70197;PMS5003;57582;-34.876;138.628;2023-05-10T06:46:46;2.43;2.43;1.33
70197;PMS5003;57582;-34.876;138.628;2023-05-10T06:49:47;2.33;2.33;1.27
70197;PMS5003;57582;-34.876;138.628;2023-05-10T06:52:46;3.00;2.57;0.93
70197;PMS5003;57582;-34.876;138.628;2023-05-10T06:55:46;1.90;1.90;1.00
70197;PMS5003;57582;-34.876;138.628;2023-05-10T06:58:46;2.77;2.53;1.33
70197;PMS5003;57582;-34.876;138.628;2023-05-10T07:01:47;2.87;2.87;1.07
70197;PMS5003;57582;-34.876;138.628;2023-05-10T07:04:47;2.27;1.97;0.77
70197;PMS5003;57582;-34.876;138.628;2023-05-10T07:07:47;3.90;2.73;1.30
70197;PMS5003;57582;-34.876;138.628;2023-05-10T07:10:46;3.70;2.87;1.23
70197;PMS5003;57582;-34.876;138.628;2023-05-10T07:13:46;2.77;2.27;1.20
70197;PMS5003;57582;-34.876;138.628;2023-05-10T07:16:46;4.13;2.67;1.07
70197;PMS5003;57582;-34.876;138.628;2023-05-10T07:19:47;3.97;3.07;1.40
70197;PMS5003;57582;-34.876;138.628;2023-05-10T07:22:46;2.60;2.60;1.70
70197;PMS5003;57582;-34.876;138.628;2023-05-10T07:25:49;2.10;2.03;1.57
70197;PMS5003;57582;-34.876;138.628;2023-05-10T07:28:46;3.27;2.83;1.43
70197;PMS5003;57582;-34.876;138.628;2023-05-10T07:31:46;3.00;3.00;1.13
70197;PMS5003;57582;-34.876;138.628;2023-05-10T07:34:47;4.17;4.17;2.43
70197;PMS5003;57582;-34.876;138.628;2023-05-10T07:37:47;3.97;3.43;1.87
70197;PMS5003;57582;-34.876;138.628;2023-05-10T07:40:46;3.93;3.93;2.23
70197;PMS5003;57582;-34.876;138.628;2023-05-10T07:43:47;3.93;3.13;1.87
70197;PMS5003;57582;-34.876;138.628;2023-05-10T07:46:47;3.17;3.17;1.30
70197;PMS5003;57582;-34.876;138.628;2023-05-10T07:49:47;3.30;2.97;1.37
70197;PMS5003;57582;-34.876;138.628;2023-05-10T07:52:47;4.10;3.30;1.53
70197;PMS5003;57582;-34.876;138.628;2023-05-10T07:55:57;4.00;3.93;2.10
70197;PMS5003;57582;-34.876;138.628;2023-05-10T07:58:46;4.40;3.83;2.43
70197;PMS5003;57582;-34.876;138.628;2023-05-10T08:01:47;6.27;5.23;3.50
70197;PMS5003;57582;-34.876;138.628;2023-05-10T08:04:46;4.63;4.37;2.47
70197;PMS5003;57582;-34.876;138.628;2023-05-10T08:07:47;3.13;2.77;1.67
70197;PMS5003;57582;-34.876;138.628;2023-05-10T08:10:46;2.77;2.77;1.90
70197;PMS5003;57582;-34.876;138.628;2023-05-10T08:13:49;4.30;2.93;1.13
70197;PMS5003;57582;-34.876;138.628;2023-05-10T08:16:47;3.63;3.63;2.23
70197;PMS5003;57582;-34.876;138.628;2023-05-10T08:19:47;3.00;3.00;1.87
70197;PMS5003;57582;-34.876;138.628;2023-05-10T08:22:46;3.20;3.20;1.43
70197;PMS5003;57582;-34.876;138.628;2023-05-10T08:25:47;3.67;3.67;2.00
70197;PMS5003;57582;-34.876;138.628;2023-05-10T08:28:47;5.13;4.03;1.97
70197;PMS5003;57582;-34.876;138.628;2023-05-10T08:31:47;3.17;3.17;1.90
70197;PMS5003;57582;-34.876;138.628;2023-05-10T08:34:46;4.93;4.10;2.73
70197;PMS5003;57582;-34.876;138.628;2023-05-10T08:37:48;2.67;1.93;1.03
70197;PMS5003;57582;-34.876;138.628;2023-05-10T08:40:49;5.90;5.70;3.10
70197;PMS5003;57582;-34.876;138.628;2023-05-10T08:43:47;4.83;3.97;2.60
70197;PMS5003;57582;-34.876;138.628;2023-05-10T08:46:47;5.13;4.07;2.90
70197;PMS5003;57582;-34.876;138.628;2023-05-10T08:49:48;5.27;5.27;3.33
70197;PMS5003;57582;-34.876;138.628;2023-05-10T08:52:47;4.20;4.20;3.13
70197;PMS5003;57582;-34.876;138.628;2023-05-10T08:55:47;3.30;3.17;1.03
70197;PMS5003;57582;-34.876;138.628;2023-05-10T08:58:47;7.53;7.17;3.27
70197;PMS5003;57582;-34.876;138.628;2023-05-10T09:01:48;9.13;6.73;4.17
70197;PMS5003;57582;-34.876;138.628;2023-05-10T09:04:47;7.33;6.27;4.13
70197;PMS5003;57582;-34.876;138.628;2023-05-10T09:07:46;11.83;9.97;5.90
70197;PMS5003;57582;-34.876;138.628;2023-05-10T09:10:47;7.97;7.77;4.23
70197;PMS5003;57582;-34.876;138.628;2023-05-10T09:13:50;9.00;7.50;4.47
70197;PMS5003;57582;-34.876;138.628;2023-05-10T09:16:47;7.73;7.30;4.93
70197;PMS5003;57582;-34.876;138.628;2023-05-10T09:19:46;6.90;6.10;3.80
70197;PMS5003;57582;-34.876;138.628;2023-05-10T09:22:47;8.20;8.20;4.63
70197;PMS5003;57582;-34.876;138.628;2023-05-10T09:25:47;8.10;7.93;5.00
70197;PMS5003;57582;-34.876;138.628;2023-05-10T09:28:53;8.57;7.37;5.53
70197;PMS5003;57582;-34.876;138.628;2023-05-10T09:31:49;7.80;7.37;3.93
70197;PMS5003;57582;-34.876;138.628;2023-05-10T09:34:49;5.90;5.27;3.53
70197;PMS5003;57582;-34.876;138.628;2023-05-10T09:37:50;3.83;3.40;1.97
70197;PMS5003;57582;-34.876;138.628;2023-05-10T09:40:52;4.07;3.43;2.50
70197;PMS5003;57582;-34.876;138.628;2023-05-10T09:43:47;3.53;2.87;1.63
70197;PMS5003;57582;-34.876;138.628;2023-05-10T09:46:50;3.73;3.73;2.23
70197;PMS5003;57582;-34.876;138.628;2023-05-10T09:49:50;3.20;2.80;1.70
70197;PMS5003;57582;-34.876;138.628;2023-05-10T09:55:46;5.00;4.77;2.30
70197;PMS5003;57582;-34.876;138.628;2023-05-10T09:59:04;3.40;3.30;1.87
70197;PMS5003;57582;-34.876;138.628;2023-05-10T10:01:51;3.90;3.90;2.00
70197;PMS5003;57582;-34.876;138.628;2023-05-10T10:04:49;3.80;2.93;1.77
70197;PMS5003;57582;-34.876;138.628;2023-05-10T10:07:47;2.83;1.97;1.07
70197;PMS5003;57582;-34.876;138.628;2023-05-10T10:10:47;5.10;3.60;2.00
70197;PMS5003;57582;-34.876;138.628;2023-05-10T10:13:47;2.80;2.40;1.50
70197;PMS5003;57582;-34.876;138.628;2023-05-10T10:16:47;7.90;6.17;3.83
70197;PMS5003;57582;-34.876;138.628;2023-05-10T10:19:48;7.47;5.90;3.33
70197;PMS5003;57582;-34.876;138.628;2023-05-10T10:22:47;3.47;3.47;2.27
70197;PMS5003;57582;-34.876;138.628;2023-05-10T10:25:48;3.43;3.43;2.00
70197;PMS5003;57582;-34.876;138.628;2023-05-10T10:34:47;2.93;2.77;1.77
70197;PMS5003;57582;-34.876;138.628;2023-05-10T10:37:50;2.10;2.10;1.13
70197;PMS5003;57582;-34.876;138.628;2023-05-10T10:40:47;1.93;1.13;1.00
70197;PMS5003;57582;-34.876;138.628;2023-05-10T10:43:47;2.17;2.17;1.10
70197;PMS5003;57582;-34.876;138.628;2023-05-10T10:49:49;5.73;5.73;4.10
70197;PMS5003;57582;-34.876;138.628;2023-05-10T10:52:47;6.03;4.43;2.10
70197;PMS5003;57582;-34.876;138.628;2023-05-10T10:55:48;5.03;3.40;2.07
70197;PMS5003;57582;-34.876;138.628;2023-05-10T10:58:49;2.03;1.87;0.93
70197;PMS5003;57582;-34.876;138.628;2023-05-10T11:01:51;3.60;3.60;2.13
70197;PMS5003;57582;-34.876;138.628;2023-05-10T11:04:47;4.67;4.30;2.33
70197;PMS5003;57582;-34.876;138.628;2023-05-10T11:07:56;3.00;2.57;1.37
70197;PMS5003;57582;-34.876;138.628;2023-05-10T11:13:48;2.00;1.70;1.20
70197;PMS5003;57582;-34.876;138.628;2023-05-10T11:16:47;2.77;2.77;2.00
70197;PMS5003;57582;-34.876;138.628;2023-05-10T11:20:13;2.27;2.27;1.13
70197;PMS5003;57582;-34.876;138.628;2023-05-10T11:22:52;3.70;2.83;1.40
70197;PMS5003;57582;-34.876;138.628;2023-05-10T11:25:48;2.60;2.60;1.50
70197;PMS5003;57582;-34.876;138.628;2023-05-10T11:28:48;2.40;2.40;1.30
70197;PMS5003;57582;-34.876;138.628;2023-05-10T11:31:48;3.17;3.17;1.97
70197;PMS5003;57582;-34.876;138.628;2023-05-10T11:34:47;3.03;2.83;1.37
70197;PMS5003;57582;-34.876;138.628;2023-05-10T11:37:48;3.77;3.33;1.57
70197;PMS5003;57582;-34.876;138.628;2023-05-10T11:40:51;3.13;3.13;1.33
70197;PMS5003;57582;-34.876;138.628;2023-05-10T11:43:49;2.83;2.60;1.73
70197;PMS5003;57582;-34.876;138.628;2023-05-10T11:46:47;4.30;3.37;2.03
70197;PMS5003;57582;-34.876;138.628;2023-05-10T11:49:48;4.57;4.00;1.53
70197;PMS5003;57582;-34.876;138.628;2023-05-10T11:52:52;3.37;3.37;2.13
70197;PMS5003;57582;-34.876;138.628;2023-05-10T11:55:48;5.57;4.77;2.47
70197;PMS5003;57582;-34.876;138.628;2023-05-10T11:58:54;3.47;3.47;2.27
70197;PMS5003;57582;-34.876;138.628;2023-05-10T12:01:48;4.83;4.00;2.13
70197;PMS5003;57582;-34.876;138.628;2023-05-10T12:04:47;3.23;2.83;1.70
70197;PMS5003;57582;-34.876;138.628;2023-05-10T12:07:47;2.63;2.63;1.57
70197;PMS5003;57582;-34.876;138.628;2023-05-10T12:10:47;4.90;4.10;2.37
70197;PMS5003;57582;-34.876;138.628;2023-05-10T12:13:47;3.50;3.50;2.03
70197;PMS5003;57582;-34.876;138.628;2023-05-10T12:16:47;5.97;5.57;2.60
70197;PMS5003;57582;-34.876;138.628;2023-05-10T12:19:47;5.27;5.27;2.60
70197;PMS5003;57582;-34.876;138.628;2023-05-10T12:22:49;2.63;2.03;1.33
70197;PMS5003;57582;-34.876;138.628;2023-05-10T12:25:47;2.73;2.67;1.13
70197;PMS5003;57582;-34.876;138.628;2023-05-10T12:28:47;2.03;1.93;1.10
70197;PMS5003;57582;-34.876;138.628;2023-05-10T12:31:57;2.73;2.73;2.00
70197;PMS5003;57582;-34.876;138.628;2023-05-10T12:34:47;2.63;2.63;1.63
70197;PMS5003;57582;-34.876;138.628;2023-05-10T12:37:48;3.77;3.20;1.23
70197;PMS5003;57582;-34.876;138.628;2023-05-10T12:40:47;4.87;4.83;2.70
70197;PMS5003;57582;-34.876;138.628;2023-05-10T12:43:47;5.50;5.40;3.17
70197;PMS5003;57582;-34.876;138.628;2023-05-10T12:46:47;4.30;3.67;2.57
70197;PMS5003;57582;-34.876;138.628;2023-05-10T12:49:48;3.40;3.40;2.40
70197;PMS5003;57582;-34.876;138.628;2023-05-10T12:52:47;4.13;4.13;1.47
70197;PMS5003;57582;-34.876;138.628;2023-05-10T12:55:47;5.40;4.67;2.93
70197;PMS5003;57582;-34.876;138.628;2023-05-10T12:58:47;3.73;3.30;2.27
70197;PMS5003;57582;-34.876;138.628;2023-05-10T13:01:48;3.53;3.53;2.33
70197;PMS5003;57582;-34.876;138.628;2023-05-10T13:04:47;2.57;2.33;1.73
70197;PMS5003;57582;-34.876;138.628;2023-05-10T13:07:47;5.70;4.47;3.00
70197;PMS5003;57582;-34.876;138.628;2023-05-10T13:10:47;4.43;3.97;3.00
70197;PMS5003;57582;-34.876;138.628;2023-05-10T13:13:48;6.67;5.23;2.93
70197;PMS5003;57582;-34.876;138.628;2023-05-10T13:16:47;6.87;6.33;3.33
70197;PMS5003;57582;-34.876;138.628;2023-05-10T13:19:47;4.03;4.03;2.57
70197;PMS5003;57582;-34.876;138.628;2023-05-10T13:22:47;5.73;5.73;3.30
70197;PMS5003;57582;-34.876;138.628;2023-05-10T13:25:49;5.57;5.53;3.87
70197;PMS5003;57582;-34.876;138.628;2023-05-10T13:28:47;7.50;6.40;3.97
70197;PMS5003;57582;-34.876;138.628;2023-05-10T13:31:47;7.63;6.90;4.00
70197;PMS5003;57582;-34.876;138.628;2023-05-10T13:34:47;7.73;6.57;4.13
70197;PMS5003;57582;-34.876;138.628;2023-05-10T13:37:48;7.90;7.90;4.93
70197;PMS5003;57582;-34.876;138.628;2023-05-10T13:40:47;7.50;7.50;4.03
70197;PMS5003;57582;-34.876;138.628;2023-05-10T13:43:47;5.73;4.87;2.60
70197;PMS5003;57582;-34.876;138.628;2023-05-10T13:46:47;9.63;8.10;5.10
70197;PMS5003;57582;-34.876;138.628;2023-05-10T13:49:48;7.77;6.43;3.40
70197;PMS5003;57582;-34.876;138.628;2023-05-10T13:52:47;8.47;7.50;4.23
70197;PMS5003;57582;-34.876;138.628;2023-05-10T13:55:47;7.13;7.13;3.97
70197;PMS5003;57582;-34.876;138.628;2023-05-10T13:58:47;7.80;6.50;3.47
70197;PMS5003;57582;-34.876;138.628;2023-05-10T14:01:47;7.20;7.20;3.87
70197;PMS5003;57582;-34.876;138.628;2023-05-10T14:04:47;6.33;6.00;4.10
70197;PMS5003;57582;-34.876;138.628;2023-05-10T14:07:47;5.53;5.03;2.97
70197;PMS5003;57582;-34.876;138.628;2023-05-10T14:10:47;6.10;5.73;4.10
70197;PMS5003;57582;-34.876;138.628;2023-05-10T14:13:48;4.17;4.17;2.57
70197;PMS5003;57582;-34.876;138.628;2023-05-10T14:16:47;3.67;3.67;2.00
70197;PMS5003;57582;-34.876;138.628;2023-05-10T14:19:47;4.13;3.67;2.43
70197;PMS5003;57582;-34.876;138.628;2023-05-10T14:22:47;5.97;4.97;2.47
70197;PMS5003;57582;-34.876;138.628;2023-05-10T14:25:47;3.17;3.17;2.53
70197;PMS5003;57582;-34.876;138.628;2023-05-10T14:28:47;3.33;3.33;2.00
70197;PMS5003;57582;-34.876;138.628;2023-05-10T14:31:47;3.50;3.50;2.10
70197;PMS5003;57582;-34.876;138.628;2023-05-10T14:34:47;2.33;2.33;1.13
70197;PMS5003;57582;-34.876;138.628;2023-05-10T14:37:48;3.00;3.00;1.53
70197;PMS5003;57582;-34.876;138.628;2023-05-10T14:40:47;2.57;2.03;1.77
70197;PMS5003;57582;-34.876;138.628;2023-05-10T14:43:47;3.27;2.43;1.57
70197;PMS5003;57582;-34.876;138.628;2023-05-10T14:46:47;3.70;3.70;1.90
70197;PMS5003;57582;-34.876;138.628;2023-05-10T14:49:48;3.20;3.20;1.97
70197;PMS5003;57582;-34.876;138.628;2023-05-10T14:52:47;2.97;2.97;1.70
70197;PMS5003;57582;-34.876;138.628;2023-05-10T14:55:47;2.93;2.57;1.77
70197;PMS5003;57582;-34.876;138.628;2023-05-10T14:58:47;2.63;2.47;1.57
70197;PMS5003;57582;-34.876;138.628;2023-05-10T15:01:47;2.03;2.03;1.83
70197;PMS5003;57582;-34.876;138.628;2023-05-10T15:04:47;2.10;2.10;1.07
70197;PMS5003;57582;-34.876;138.628;2023-05-10T15:07:47;1.93;1.93;1.00
70197;PMS5003;57582;-34.876;138.628;2023-05-10T15:10:47;2.00;2.00;1.00
70197;PMS5003;57582;-34.876;138.628;2023-05-10T15:13:48;1.37;1.37;0.97
70197;PMS5003;57582;-34.876;138.628;2023-05-10T15:16:47;1.93;1.93;0.90
70197;PMS5003;57582;-34.876;138.628;2023-05-10T15:19:47;1.13;1.13;0.30
70197;PMS5003;57582;-34.876;138.628;2023-05-10T15:22:47;2.60;1.83;1.43
70197;PMS5003;57582;-34.876;138.628;2023-05-10T15:25:49;1.60;1.60;0.40
70197;PMS5003;57582;-34.876;138.628;2023-05-10T15:28:47;0.80;0.80;0.40
70197;PMS5003;57582;-34.876;138.628;2023-05-10T15:31:48;0.53;0.53;0.00
70197;PMS5003;57582;-34.876;138.628;2023-05-10T15:34:47;1.17;1.17;0.27
70197;PMS5003;57582;-34.876;138.628;2023-05-10T15:37:48;1.60;1.60;0.83
70197;PMS5003;57582;-34.876;138.628;2023-05-10T15:40:47;1.03;1.03;1.00
70197;PMS5003;57582;-34.876;138.628;2023-05-10T15:43:47;1.43;1.43;0.70
70197;PMS5003;57582;-34.876;138.628;2023-05-10T15:46:47;1.87;1.23;0.77
70197;PMS5003;57582;-34.876;138.628;2023-05-10T15:49:48;1.77;1.47;0.87
70197;PMS5003;57582;-34.876;138.628;2023-05-10T15:52:47;0.80;0.57;0.10
70197;PMS5003;57582;-34.876;138.628;2023-05-10T15:55:47;1.47;1.47;0.43
70197;PMS5003;57582;-34.876;138.628;2023-05-10T15:58:47;1.17;1.17;0.40
70197;PMS5003;57582;-34.876;138.628;2023-05-10T16:01:48;1.03;1.03;0.47
70197;PMS5003;57582;-34.876;138.628;2023-05-10T16:04:47;2.03;1.50;0.73
70197;PMS5003;57582;-34.876;138.628;2023-05-10T16:07:47;1.00;1.00;0.60
70197;PMS5003;57582;-34.876;138.628;2023-05-10T16:10:49;0.97;0.97;0.00
70197;PMS5003;57582;-34.876;138.628;2023-05-10T16:13:48;0.90;0.90;0.50
70197;PMS5003;57582;-34.876;138.628;2023-05-10T16:16:47;1.67;1.67;0.90
70197;PMS5003;57582;-34.876;138.628;2023-05-10T16:19:47;1.57;1.57;0.57
70197;PMS5003;57582;-34.876;138.628;2023-05-10T16:22:47;1.03;1.03;0.17
70197;PMS5003;57582;-34.876;138.628;2023-05-10T16:25:48;1.80;1.80;1.00
70197;PMS5003;57582;-34.876;138.628;2023-05-10T16:28:48;1.17;1.17;0.60
70197;PMS5003;57582;-34.876;138.628;2023-05-10T16:31:47;1.60;1.50;0.23
70197;PMS5003;57582;-34.876;138.628;2023-05-10T16:34:47;1.63;1.40;0.67
70197;PMS5003;57582;-34.876;138.628;2023-05-10T16:37:49;1.00;1.00;0.57
70197;PMS5003;57582;-34.876;138.628;2023-05-10T16:40:47;0.13;0.13;0.00
70197;PMS5003;57582;-34.876;138.628;2023-05-10T16:43:47;0.97;0.63;0.50
70197;PMS5003;57582;-34.876;138.628;2023-05-10T16:46:47;1.00;1.00;0.30
70197;PMS5003;57582;-34.876;138.628;2023-05-10T16:49:48;0.97;0.97;0.50
70197;PMS5003;57582;-34.876;138.628;2023-05-10T16:52:47;0.87;0.87;0.33
70197;PMS5003;57582;-34.876;138.628;2023-05-10T16:55:47;0.60;0.60;0.53
70197;PMS5003;57582;-34.876;138.628;2023-05-10T16:58:47;0.10;0.10;0.10
70197;PMS5003;57582;-34.876;138.628;2023-05-10T17:01:48;1.03;1.03;0.40
70197;PMS5003;57582;-34.876;138.628;2023-05-10T17:04:47;1.17;1.17;0.47
70197;PMS5003;57582;-34.876;138.628;2023-05-10T17:07:47;0.37;0.37;0.13
70197;PMS5003;57582;-34.876;138.628;2023-05-10T17:10:47;1.00;1.00;1.00
70197;PMS5003;57582;-34.876;138.628;2023-05-10T17:13:48;0.80;0.80;0.33
70197;PMS5003;57582;-34.876;138.628;2023-05-10T17:16:47;0.50;0.33;0.00
70197;PMS5003;57582;-34.876;138.628;2023-05-10T17:19:47;0.33;0.33;0.10
70197;PMS5003;57582;-34.876;138.628;2023-05-10T17:22:47;1.10;1.10;0.83
70197;PMS5003;57582;-34.876;138.628;2023-05-10T17:25:48;0.57;0.57;0.00